Time;durP1;ratioP1;P1;durP2;ratioP2;P2;SDS_P1;SDS_P2;PMS_P1;PMS_P2;Temp;Humidity;BMP_temperature;BMP_pressure;BME280_temperature;BME280_humidity;BME280_pressure;Samples;Min_cycle;Max_cycle;Signal;HPM_P1;HPM_P2
2022/11/29 00:00:25;;;;;;;4.15;3.70;;;;;;;;;;4605645;27;20062;-57
2022/11/29 00:02:35;;;;;;;3.97;3.30;;;;;;;;;;4605048;27;20827;-59
2022/11/29 00:04:45;;;;;;;3.67;3.22;;;;;;;;;;4605709;27;20031;-59
2022/11/29 00:06:56;;;;;;;3.53;3.00;;;;;;;;;;4605459;27;20047;-60
2022/11/29 00:09:08;;;;;;;4.20;3.33;;;;;;;;;;4605234;27;20414;-60
2022/11/29 00:13:51;;;;;;;4.65;3.55;;;;;;;;;;4607980;27;20530;-60
2022/11/29 00:16:06;;;;;;;3.50;3.20;;;;;;;;;;4606195;27;20040;-60
2022/11/29 00:18:16;;;;;;;4.05;3.42;;;;;;;;;;4605045;27;20036;-60
2022/11/29 00:20:26;;;;;;;3.50;3.20;;;;;;;;;;4605083;27;20074;-61
2022/11/29 00:22:37;;;;;;;3.38;3.08;;;;;;;;;;4605516;27;20031;-60
2022/11/29 00:24:47;;;;;;;4.38;3.50;;;;;;;;;;4605737;27;20031;-60
2022/11/29 00:26:58;;;;;;;3.83;3.50;;;;;;;;;;4604583;27;20104;-59
2022/11/29 00:29:09;;;;;;;3.80;3.30;;;;;;;;;;4604057;27;20047;-60
2022/11/29 00:31:21;;;;;;;4.55;3.65;;;;;;;;;;4606848;27;20077;-61
2022/11/29 00:33:31;;;;;;;3.65;3.25;;;;;;;;;;4604431;27;20608;-61
2022/11/29 00:35:41;;;;;;;4.13;3.33;;;;;;;;;;4603450;27;20032;-60
2022/11/29 00:37:52;;;;;;;3.75;3.22;;;;;;;;;;4605643;27;20865;-61
2022/11/29 00:40:02;;;;;;;4.03;3.38;;;;;;;;;;4606763;27;20255;-61
2022/11/29 00:42:14;;;;;;;3.92;3.28;;;;;;;;;;4605296;27;20091;-61
2022/11/29 00:44:24;;;;;;;3.50;2.95;;;;;;;;;;4605581;27;20070;-61
2022/11/29 00:46:34;;;;;;;3.72;3.33;;;;;;;;;;4606062;27;20106;-61
2022/11/29 00:48:45;;;;;;;3.80;3.15;;;;;;;;;;4604573;27;20043;-61
2022/11/29 00:50:55;;;;;;;3.85;3.42;;;;;;;;;;4601940;27;20091;-60
2022/11/29 00:53:05;;;;;;;4.82;3.42;;;;;;;;;;4603842;27;20084;-61
2022/11/29 00:55:16;;;;;;;3.78;3.25;;;;;;;;;;4605333;27;20031;-61
2022/11/29 00:57:26;;;;;;;3.50;3.20;;;;;;;;;;4606101;27;20491;-61
2022/11/29 00:59:36;;;;;;;3.80;3.40;;;;;;;;;;4604955;27;20096;-61
2022/11/29 01:01:47;;;;;;;3.38;3.05;;;;;;;;;;4604500;27;20047;-61
2022/11/29 01:03:58;;;;;;;3.40;3.10;;;;;;;;;;4605446;27;20687;-61
2022/11/29 01:06:11;;;;;;;4.20;3.45;;;;;;;;;;4603956;27;20035;-61
2022/11/29 01:08:21;;;;;;;3.35;2.97;;;;;;;;;;4603574;27;20078;-61
2022/11/29 01:10:31;;;;;;;3.67;3.28;;;;;;;;;;4605122;27;20114;-60
2022/11/29 01:12:42;;;;;;;3.92;3.53;;;;;;;;;;4611261;27;20912;-61
2022/11/29 01:14:52;;;;;;;3.72;3.25;;;;;;;;;;4603096;27;20383;-61
2022/11/29 01:17:02;;;;;;;3.38;3.00;;;;;;;;;;4605504;27;20551;-60
2022/11/29 01:19:13;;;;;;;3.53;3.17;;;;;;;;;;4604374;27;20539;-60
2022/11/29 01:21:23;;;;;;;3.33;3.03;;;;;;;;;;4604190;27;20082;-61
2022/11/29 01:23:34;;;;;;;4.07;3.40;;;;;;;;;;4603183;27;20028;-61
2022/11/29 01:25:44;;;;;;;4.13;3.53;;;;;;;;;;4603823;27;20521;-61
2022/11/29 01:27:55;;;;;;;3.60;3.15;;;;;;;;;;4604886;27;20321;-61
2022/11/29 01:30:06;;;;;;;4.20;3.40;;;;;;;;;;4604524;27;20139;-61
2022/11/29 01:32:16;;;;;;;4.18;3.60;;;;;;;;;;4604076;27;20054;-61
2022/11/29 01:34:27;;;;;;;4.40;3.33;;;;;;;;;;4605515;27;20035;-61
2022/11/29 01:36:37;;;;;;;3.90;3.28;;;;;;;;;;4602669;27;20587;-61
2022/11/29 01:38:47;;;;;;;3.60;3.28;;;;;;;;;;4605601;27;20100;-61
2022/11/29 01:41:02;;;;;;;3.72;3.30;;;;;;;;;;4603630;27;20563;-61
2022/11/29 01:43:16;;;;;;;3.50;3.20;;;;;;;;;;4604940;27;20613;-60
2022/11/29 01:45:26;;;;;;;3.60;3.20;;;;;;;;;;4606193;27;20038;-61
2022/11/29 01:47:39;;;;;;;4.32;3.58;;;;;;;;;;4606575;27;20522;-60
2022/11/29 01:49:50;;;;;;;4.10;3.60;;;;;;;;;;4605138;27;20130;-61
2022/11/29 01:52:08;;;;;;;4.05;3.45;;;;;;;;;;4601741;27;20041;-61
2022/11/29 01:54:18;;;;;;;4.75;3.40;;;;;;;;;;4603997;27;20485;-61
2022/11/29 01:56:29;;;;;;;3.40;3.10;;;;;;;;;;4605001;27;20236;-61
2022/11/29 01:58:41;;;;;;;3.45;3.15;;;;;;;;;;4602149;27;20035;-61
2022/11/29 02:00:51;;;;;;;4.13;3.30;;;;;;;;;;4602863;27;20593;-61
2022/11/29 02:03:09;;;;;;;3.78;3.38;;;;;;;;;;4605618;27;20130;-61
2022/11/29 02:05:20;;;;;;;3.92;3.20;;;;;;;;;;4602268;27;20039;-61
2022/11/29 02:07:30;;;;;;;4.20;3.40;;;;;;;;;;4605049;27;20051;-61
2022/11/29 02:09:41;;;;;;;3.22;2.90;;;;;;;;;;4604397;27;20031;-61
2022/11/29 02:12:13;;;;;;;3.80;2.95;;;;;;;;;;4603365;27;20050;-61
2022/11/29 02:14:32;;;;;;;3.30;3.00;;;;;;;;;;4603338;27;20961;-60
2022/11/29 02:16:54;;;;;;;3.70;3.22;;;;;;;;;;4602968;27;20487;-61
2022/11/29 02:19:04;;;;;;;3.75;3.25;;;;;;;;;;4601674;27;20047;-61
2022/11/29 02:21:18;;;;;;;3.97;3.25;;;;;;;;;;4602702;27;20031;-61
2022/11/29 02:23:39;;;;;;;3.55;3.10;;;;;;;;;;4602616;27;20047;-61
2022/11/29 02:26:12;;;;;;;3.78;3.38;;;;;;;;;;4609053;27;20149;-61
2022/11/29 02:28:39;;;;;;;4.00;3.10;;;;;;;;;;4602800;27;20047;-61
2022/11/29 02:30:57;;;;;;;3.70;3.30;;;;;;;;;;4604082;27;20857;-61
2022/11/29 02:33:08;;;;;;;3.55;2.95;;;;;;;;;;4602455;27;20038;-61
2022/11/29 02:35:23;;;;;;;3.70;3.00;;;;;;;;;;4604799;27;20038;-61
2022/11/29 02:37:36;;;;;;;4.22;2.90;;;;;;;;;;4604763;27;20039;-61
2022/11/29 02:39:46;;;;;;;3.75;3.20;;;;;;;;;;4606784;27;20578;-61
2022/11/29 02:42:03;;;;;;;4.78;3.75;;;;;;;;;;4606585;27;20036;-61
2022/11/29 02:44:22;;;;;;;3.83;3.20;;;;;;;;;;4603482;27;20024;-61
2022/11/29 02:46:51;;;;;;;4.03;3.53;;;;;;;;;;4606405;27;20736;-61
2022/11/29 02:49:06;;;;;;;3.90;3.22;;;;;;;;;;4605521;27;20080;-61
2022/11/29 02:51:19;;;;;;;4.43;3.60;;;;;;;;;;4606606;27;20035;-61
2022/11/29 02:53:37;;;;;;;3.53;3.10;;;;;;;;;;4607556;27;20044;-61
2022/11/29 02:55:55;;;;;;;3.70;3.25;;;;;;;;;;4612541;27;20034;-60
2022/11/29 02:58:24;;;;;;;3.95;3.25;;;;;;;;;;4605012;27;20071;-61
2022/11/29 03:00:36;;;;;;;4.47;3.38;;;;;;;;;;4605837;27;20435;-61
2022/11/29 03:02:50;;;;;;;3.83;3.38;;;;;;;;;;4607273;27;20062;-62
2022/11/29 03:05:15;;;;;;;4.38;3.40;;;;;;;;;;4605837;27;20034;-61
2022/11/29 03:07:35;;;;;;;4.13;3.20;;;;;;;;;;4608053;27;20184;-61
2022/11/29 03:09:54;;;;;;;4.25;3.50;;;;;;;;;;4606546;27;20040;-61
2022/11/29 03:12:16;;;;;;;4.00;3.20;;;;;;;;;;4606933;27;20035;-61
2022/11/29 03:14:29;;;;;;;4.07;3.40;;;;;;;;;;4605541;27;20023;-61
2022/11/29 03:16:54;;;;;;;4.15;3.58;;;;;;;;;;4606113;27;20117;-61
2022/11/29 03:19:07;;;;;;;3.85;3.33;;;;;;;;;;4605046;27;20031;-61
2022/11/29 03:21:25;;;;;;;3.80;3.30;;;;;;;;;;4604448;27;20039;-61
2022/11/29 03:23:56;;;;;;;3.88;3.17;;;;;;;;;;4606002;27;20050;-61
2022/11/29 03:26:09;;;;;;;4.30;3.45;;;;;;;;;;4604486;27;20118;-61
2022/11/29 03:28:22;;;;;;;4.22;3.30;;;;;;;;;;4604135;27;20039;-61
2022/11/29 03:30:36;;;;;;;4.88;3.40;;;;;;;;;;4606398;27;20711;-61
2022/11/29 03:32:55;;;;;;;4.75;3.60;;;;;;;;;;4604593;27;20084;-61
2022/11/29 03:35:15;;;;;;;4.40;3.40;;;;;;;;;;4605497;27;20078;-61
2022/11/29 03:37:31;;;;;;;4.18;3.35;;;;;;;;;;4605305;27;20039;-61
2022/11/29 03:39:48;;;;;;;4.65;3.80;;;;;;;;;;4604661;27;20110;-61
2022/11/29 03:41:58;;;;;;;;;;;;;;;;;;4604611;27;20082;-61
2022/11/29 03:44:11;;;;;;;4.57;3.67;;;;;;;;;;4605521;27;20552;-61
2022/11/29 03:46:26;;;;;;;4.40;3.70;;;;;;;;;;4606361;27;20265;-61
2022/11/29 03:48:42;;;;;;;4.32;3.67;;;;;;;;;;4603918;27;20048;-61
2022/11/29 03:50:55;;;;;;;4.80;3.67;;;;;;;;;;4605772;27;20039;-61
2022/11/29 03:53:24;;;;;;;4.10;3.70;;;;;;;;;;4606870;27;20510;-61
2022/11/29 03:55:49;;;;;;;4.15;3.47;;;;;;;;;;4603727;27;20071;-61
2022/11/29 03:58:15;;;;;;;4.68;3.80;;;;;;;;;;4604325;27;20032;-61
2022/11/29 04:00:28;;;;;;;4.53;3.63;;;;;;;;;;4605050;27;20136;-61
2022/11/29 04:02:55;;;;;;;3.83;3.22;;;;;;;;;;4604147;27;20104;-61
2022/11/29 04:05:08;;;;;;;3.78;3.38;;;;;;;;;;4604815;27;20023;-61
2022/11/29 04:07:22;;;;;;;4.13;3.40;;;;;;;;;;4603322;27;20100;-61
2022/11/29 04:09:37;;;;;;;4.90;3.60;;;;;;;;;;4605487;27;20027;-61
2022/11/29 04:11:58;;;;;;;4.63;3.60;;;;;;;;;;4603220;27;20093;-61
2022/11/29 04:14:26;;;;;;;4.32;3.72;;;;;;;;;;4604460;27;20039;-61
2022/11/29 04:16:42;;;;;;;4.50;3.70;;;;;;;;;;4602117;27;20031;-61
2022/11/29 04:18:55;;;;;;;4.70;3.65;;;;;;;;;;4603143;27;20142;-63
2022/11/29 04:21:15;;;;;;;4.45;3.85;;;;;;;;;;4607687;27;20040;-61
2022/11/29 04:23:44;;;;;;;4.43;3.63;;;;;;;;;;4601670;27;20035;-60
2022/11/29 04:26:04;;;;;;;4.75;3.83;;;;;;;;;;4602644;27;20046;-61
2022/11/29 04:28:20;;;;;;;5.28;3.88;;;;;;;;;;4603398;27;20043;-62
2022/11/29 04:30:43;;;;;;;4.28;3.72;;;;;;;;;;4604059;27;20067;-61
2022/11/29 04:33:02;;;;;;;3.95;3.55;;;;;;;;;;4604963;27;20046;-61
2022/11/29 04:35:31;;;;;;;5.00;3.75;;;;;;;;;;4605965;27;20038;-61
2022/11/29 04:38:00;;;;;;;5.45;4.03;;;;;;;;;;4606489;27;20046;-61
2022/11/29 04:40:13;;;;;;;4.82;4.10;;;;;;;;;;4603416;27;20037;-61
2022/11/29 04:42:23;;;;;;;4.68;4.03;;;;;;;;;;4605029;27;20028;-61
2022/11/29 04:44:37;;;;;;;5.40;4.20;;;;;;;;;;4603380;27;20590;-61
2022/11/29 04:46:47;;;;;;;5.28;4.25;;;;;;;;;;4604663;27;20047;-61
2022/11/29 04:49:07;;;;;;;4.95;3.92;;;;;;;;;;4603652;27;20047;-61
2022/11/29 04:51:21;;;;;;;5.22;4.07;;;;;;;;;;4603707;27;20463;-61
2022/11/29 04:53:31;;;;;;;5.32;4.03;;;;;;;;;;4603849;27;20567;-61
2022/11/29 04:55:50;;;;;;;5.07;4.10;;;;;;;;;;4605260;27;20031;-61
2022/11/29 04:58:05;;;;;;;5.03;4.07;;;;;;;;;;4603048;27;20092;-61
2022/11/29 05:00:20;;;;;;;4.68;3.83;;;;;;;;;;4603302;27;20871;-61
2022/11/29 05:02:43;;;;;;;4.82;3.88;;;;;;;;;;4600101;27;20039;-61
2022/11/29 05:04:57;;;;;;;4.90;4.03;;;;;;;;;;4603416;27;20085;-61
2022/11/29 05:07:24;;;;;;;5.00;4.07;;;;;;;;;;4601201;27;20063;-61
2022/11/29 05:09:54;;;;;;;4.93;4.28;;;;;;;;;;4603135;27;20746;-61
2022/11/29 05:12:04;;;;;;;4.95;3.92;;;;;;;;;;4603912;27;20027;-61
2022/11/29 05:14:34;;;;;;;5.55;4.25;;;;;;;;;;4602830;27;20486;-61
2022/11/29 05:16:52;;;;;;;5.80;4.50;;;;;;;;;;4601402;27;20027;-61
2022/11/29 05:19:21;;;;;;;5.65;4.55;;;;;;;;;;4604420;27;20506;-61
2022/11/29 05:21:37;;;;;;;5.57;4.22;;;;;;;;;;4603178;27;20026;-61
2022/11/29 05:24:00;;;;;;;6.57;4.45;;;;;;;;;;4602346;27;20089;-61
2022/11/29 05:26:21;;;;;;;5.78;4.50;;;;;;;;;;4602214;27;20030;-61
2022/11/29 05:28:34;;;;;;;5.75;4.30;;;;;;;;;;4603290;27;20039;-61
2022/11/29 05:31:03;;;;;;;4.97;4.10;;;;;;;;;;4608757;27;20043;-61
2022/11/29 05:33:23;;;;;;;5.50;4.30;;;;;;;;;;4604827;27;20038;-61
2022/11/29 05:35:39;;;;;;;5.18;4.20;;;;;;;;;;4602577;27;20036;-61
2022/11/29 05:37:52;;;;;;;5.53;4.43;;;;;;;;;;4605942;27;20809;-61
2022/11/29 05:40:06;;;;;;;6.22;4.82;;;;;;;;;;4601092;27;20116;-61
2022/11/29 05:42:35;;;;;;;6.20;4.60;;;;;;;;;;4602547;27;20047;-61
2022/11/29 05:44:52;;;;;;;5.90;4.80;;;;;;;;;;4600429;27;20036;-60
2022/11/29 05:47:04;;;;;;;5.53;4.63;;;;;;;;;;4601192;27;20059;-60
2022/11/29 05:49:22;;;;;;;6.75;5.15;;;;;;;;;;4603010;27;20050;-60
2022/11/29 05:51:51;;;;;;;6.32;4.78;;;;;;;;;;4601413;27;20031;-60
2022/11/29 05:54:20;;;;;;;6.40;5.22;;;;;;;;;;4601540;27;21056;-60
2022/11/29 05:56:42;;;;;;;5.63;4.80;;;;;;;;;;4603313;27;20114;-60
2022/11/29 05:58:52;;;;;;;6.65;5.00;;;;;;;;;;4603152;27;20092;-60
2022/11/29 06:01:12;;;;;;;6.78;4.88;;;;;;;;;;4604971;27;20046;-60
2022/11/29 06:03:22;;;;;;;6.13;4.75;;;;;;;;;;4602122;27;20042;-60
2022/11/29 06:05:35;;;;;;;6.55;5.00;;;;;;;;;;4602319;27;20052;-60
2022/11/29 06:07:51;;;;;;;6.10;4.68;;;;;;;;;;4603755;27;20087;-60
2022/11/29 06:10:09;;;;;;;5.53;4.50;;;;;;;;;;4599625;27;20046;-60
2022/11/29 06:12:21;;;;;;;6.13;4.53;;;;;;;;;;4605874;27;20324;-60
2022/11/29 06:14:35;;;;;;;6.43;4.63;;;;;;;;;;4604417;27;20684;-60
2022/11/29 06:16:55;;;;;;;5.95;5.00;;;;;;;;;;4604877;27;20058;-60
2022/11/29 06:19:25;;;;;;;5.93;4.50;;;;;;;;;;4604263;27;20086;-61
2022/11/29 06:21:39;;;;;;;6.25;4.80;;;;;;;;;;4604289;27;20065;-60
2022/11/29 06:24:07;;;;;;;6.57;4.75;;;;;;;;;;4603712;27;20028;-61
2022/11/29 06:26:25;;;;;;;5.55;4.47;;;;;;;;;;4603614;27;20743;-61
2022/11/29 06:28:54;;;;;;;4.90;3.90;;;;;;;;;;4604913;27;20047;-60
2022/11/29 06:31:14;;;;;;;6.10;4.10;;;;;;;;;;4604785;27;20027;-60
2022/11/29 06:33:27;;;;;;;4.68;3.80;;;;;;;;;;4606238;27;20027;-61
2022/11/29 06:35:46;;;;;;;5.13;4.15;;;;;;;;;;4605204;27;20067;-60
2022/11/29 06:37:57;;;;;;;5.15;4.18;;;;;;;;;;4606944;27;20641;-60
2022/11/29 06:40:11;;;;;;;5.75;4.18;;;;;;;;;;4607105;27;20092;-60
2022/11/29 06:42:21;;;;;;;5.28;4.32;;;;;;;;;;4605609;27;20046;-60
2022/11/29 06:44:32;;;;;;;5.65;4.32;;;;;;;;;;4603985;27;20263;-60
2022/11/29 06:46:47;;;;;;;5.78;4.38;;;;;;;;;;4605789;27;20051;-61
2022/11/29 06:49:00;;;;;;;5.47;4.43;;;;;;;;;;4605327;27;20094;-60
2022/11/29 06:51:20;;;;;;;5.65;4.40;;;;;;;;;;4602958;27;20039;-61
2022/11/29 06:53:39;;;;;;;5.30;4.22;;;;;;;;;;4604708;27;20961;-61
2022/11/29 06:55:56;;;;;;;5.32;4.05;;;;;;;;;;4606221;27;20031;-61
2022/11/29 06:58:23;;;;;;;4.93;4.07;;;;;;;;;;4606514;27;20039;-60
2022/11/29 07:00:49;;;;;;;5.57;4.22;;;;;;;;;;4603930;27;20027;-60
2022/11/29 07:03:23;;;;;;;4.72;3.92;;;;;;;;;;4604814;27;20625;-62
2022/11/29 07:05:33;;;;;;;4.90;4.03;;;;;;;;;;4603895;27;20042;-61
2022/11/29 07:07:45;;;;;;;5.00;3.85;;;;;;;;;;4606489;27;20046;-66
2022/11/29 07:09:59;;;;;;;5.55;4.32;;;;;;;;;;4604691;27;20223;-62
2022/11/29 07:12:09;;;;;;;4.82;4.10;;;;;;;;;;4603985;27;20795;-62
2022/11/29 07:14:20;;;;;;;5.05;3.95;;;;;;;;;;4603839;27;20031;-62
2022/11/29 07:16:30;;;;;;;5.53;4.03;;;;;;;;;;4604692;27;20039;-62
2022/11/29 07:18:56;;;;;;;4.88;3.80;;;;;;;;;;4604987;27;20088;-63
2022/11/29 07:21:13;;;;;;;4.60;3.90;;;;;;;;;;4606210;27;20018;-63
2022/11/29 07:23:29;;;;;;;4.80;4.00;;;;;;;;;;4605049;27;20644;-62
2022/11/29 07:25:53;;;;;;;5.18;4.30;;;;;;;;;;4604041;27;20026;-62
2022/11/29 07:28:03;;;;;;;4.57;3.80;;;;;;;;;;4603994;27;20068;-59
2022/11/29 07:30:26;;;;;;;4.97;3.95;;;;;;;;;;4602912;27;20162;-61
2022/11/29 07:32:55;;;;;;;4.38;3.72;;;;;;;;;;4605741;27;20028;-63
2022/11/29 07:35:14;;;;;;;4.50;3.90;;;;;;;;;;4610242;27;20576;-63
2022/11/29 07:37:24;;;;;;;4.90;3.97;;;;;;;;;;4602708;27;20042;-63
2022/11/29 07:39:46;;;;;;;4.72;3.88;;;;;;;;;;4605739;27;20038;-64
2022/11/29 07:42:01;;;;;;;5.20;4.18;;;;;;;;;;4604748;27;20043;-64
2022/11/29 07:44:13;;;;;;;;;;;;;;;;;;4604712;27;20061;-64
2022/11/29 07:46:24;;;;;;;4.75;3.85;;;;;;;;;;4604553;27;19922;-63
2022/11/29 07:48:34;;;;;;;5.05;4.18;;;;;;;;;;4605728;27;20042;-64
2022/11/29 07:50:45;;;;;;;4.68;4.07;;;;;;;;;;4603797;27;20096;-63
2022/11/29 07:52:55;;;;;;;4.45;3.65;;;;;;;;;;4605588;27;20037;-62
2022/11/29 07:55:06;;;;;;;4.22;3.80;;;;;;;;;;4604958;27;20019;-62
2022/11/29 07:57:16;;;;;;;3.88;3.47;;;;;;;;;;4605632;27;20377;-63
2022/11/29 07:59:26;;;;;;;3.72;3.33;;;;;;;;;;4605694;27;20023;-64
2022/11/29 08:01:40;;;;;;;5.20;3.55;;;;;;;;;;4591539;27;20036;-62
2022/11/29 08:03:50;;;;;;;4.47;3.78;;;;;;;;;;4602814;27;20073;-62
2022/11/29 08:06:01;;;;;;;5.65;4.28;;;;;;;;;;4604872;27;20771;-62
2022/11/29 08:08:12;;;;;;;4.70;3.97;;;;;;;;;;4620429;27;20046;-63
2022/11/29 08:10:22;;;;;;;5.22;4.05;;;;;;;;;;4612072;27;20026;-63
2022/11/29 08:12:33;;;;;;;4.80;4.00;;;;;;;;;;4602895;27;20410;-64
2022/11/29 08:14:43;;;;;;;4.15;3.75;;;;;;;;;;4610515;27;20039;-64
2022/11/29 08:16:53;;;;;;;4.53;3.83;;;;;;;;;;4602823;27;20566;-63
2022/11/29 08:19:03;;;;;;;5.28;3.92;;;;;;;;;;4605520;27;20463;-63
2022/11/29 08:21:16;;;;;;;4.95;4.00;;;;;;;;;;4609843;27;20152;-64
2022/11/29 08:23:27;;;;;;;4.13;3.63;;;;;;;;;;4603456;27;20109;-64
2022/11/29 08:25:37;;;;;;;4.45;3.92;;;;;;;;;;4603846;27;20085;-63
2022/11/29 08:27:48;;;;;;;4.20;3.80;;;;;;;;;;4604475;27;20065;-63
2022/11/29 08:29:58;;;;;;;4.35;3.92;;;;;;;;;;4605906;27;20118;-63
2022/11/29 08:32:09;;;;;;;4.70;4.20;;;;;;;;;;4604374;27;20039;-63
2022/11/29 08:34:19;;;;;;;5.53;4.70;;;;;;;;;;4603237;27;20024;-63
2022/11/29 08:36:30;;;;;;;5.78;4.95;;;;;;;;;;4611043;27;20115;-63
2022/11/29 08:38:40;;;;;;;4.10;3.70;;;;;;;;;;4602128;27;20491;-63
2022/11/29 08:40:51;;;;;;;4.47;3.97;;;;;;;;;;4604107;27;20040;-63
2022/11/29 08:43:01;;;;;;;4.60;3.72;;;;;;;;;;4606599;27;20069;-62
2022/11/29 08:45:12;;;;;;;4.25;3.67;;;;;;;;;;4605804;27;20463;-62
2022/11/29 08:47:37;;;;;;;4.45;3.95;;;;;;;;;;4605816;27;20035;-62
2022/11/29 08:50:02;;;;;;;4.43;4.03;;;;;;;;;;4603356;27;20045;-62
2022/11/29 08:54:42;;;;;;;5.40;4.10;;;;;;;;;;4601696;27;20039;-62
2022/11/29 08:56:52;;;;;;;4.30;3.90;;;;;;;;;;4604156;27;20023;-62
2022/11/29 08:59:03;;;;;;;4.47;4.03;;;;;;;;;;4605614;27;20139;-62
2022/11/29 09:01:15;;;;;;;4.53;3.90;;;;;;;;;;4605464;27;20090;-62
2022/11/29 09:05:54;;;;;;;5.07;4.10;;;;;;;;;;4602970;27;20039;-62
2022/11/29 09:08:04;;;;;;;4.45;4.05;;;;;;;;;;4606078;27;20047;-62
2022/11/29 09:10:15;;;;;;;5.10;4.40;;;;;;;;;;4602038;27;20084;-62
2022/11/29 09:12:25;;;;;;;5.05;4.20;;;;;;;;;;4605113;27;20042;-62
2022/11/29 09:14:35;;;;;;;5.05;4.10;;;;;;;;;;4604987;27;20046;-62
2022/11/29 09:16:46;;;;;;;5.03;4.30;;;;;;;;;;4603401;27;20528;-62
2022/11/29 09:18:56;;;;;;;5.40;4.53;;;;;;;;;;4603518;27;20026;-62
2022/11/29 09:21:11;;;;;;;5.55;4.70;;;;;;;;;;4603353;27;20092;-63
2022/11/29 09:23:21;;;;;;;5.38;4.55;;;;;;;;;;4602894;27;20597;-62
2022/11/29 09:25:31;;;;;;;5.75;4.40;;;;;;;;;;4606228;27;20383;-63
2022/11/29 09:27:41;;;;;;;6.75;4.70;;;;;;;;;;4602880;27;20034;-63
2022/11/29 09:29:52;;;;;;;5.72;4.70;;;;;;;;;;4603578;27;20513;-63
2022/11/29 09:32:02;;;;;;;5.47;4.30;;;;;;;;;;4602844;27;20034;-63
2022/11/29 09:34:13;;;;;;;6.78;4.80;;;;;;;;;;4600647;27;20038;-63
2022/11/29 09:36:24;;;;;;;6.55;4.70;;;;;;;;;;4602200;27;20061;-63
2022/11/29 09:38:34;;;;;;;5.95;4.47;;;;;;;;;;4604525;27;20034;-63
2022/11/29 09:40:52;;;;;;;5.68;4.60;;;;;;;;;;4611050;27;20608;-63
2022/11/29 09:43:15;;;;;;;6.25;4.90;;;;;;;;;;4605274;27;20120;-63
2022/11/29 09:45:28;;;;;;;5.10;4.00;;;;;;;;;;4603437;27;20040;-63
2022/11/29 09:47:45;;;;;;;5.65;4.53;;;;;;;;;;4603352;27;20077;-63
2022/11/29 09:50:04;;;;;;;5.70;4.45;;;;;;;;;;4603669;27;20605;-63
2022/11/29 09:52:21;;;;;;;5.68;4.40;;;;;;;;;;4603608;27;20038;-63
2022/11/29 09:54:31;;;;;;;5.72;4.22;;;;;;;;;;4603452;27;20550;-63
2022/11/29 09:56:50;;;;;;;5.88;4.57;;;;;;;;;;4604398;27;20098;-63
2022/11/29 09:59:08;;;;;;;6.50;4.88;;;;;;;;;;4608968;27;20213;-59
2022/11/29 10:01:23;;;;;;;6.00;4.60;;;;;;;;;;4603496;27;20778;-59
2022/11/29 10:03:42;;;;;;;6.30;4.60;;;;;;;;;;4607241;27;20039;-60
2022/11/29 10:05:56;;;;;;;5.65;4.53;;;;;;;;;;4605934;27;20808;-59
2022/11/29 10:08:14;;;;;;;5.45;4.53;;;;;;;;;;4602431;27;20043;-57
2022/11/29 10:10:36;;;;;;;6.28;4.32;;;;;;;;;;4602536;27;20915;-60
2022/11/29 10:12:55;;;;;;;5.68;4.20;;;;;;;;;;4601805;27;20523;-58
2022/11/29 10:15:17;;;;;;;5.28;4.00;;;;;;;;;;4602441;27;20074;-59
2022/11/29 10:17:33;;;;;;;5.63;4.20;;;;;;;;;;4601752;27;20625;-59
2022/11/29 10:19:46;;;;;;;5.70;4.10;;;;;;;;;;4601965;27;20027;-59
2022/11/29 10:22:04;;;;;;;5.68;4.13;;;;;;;;;;4601313;27;20050;-60
2022/11/29 10:24:17;;;;;;;6.55;4.50;;;;;;;;;;4599839;27;20035;-58
2022/11/29 10:26:27;;;;;;;6.45;4.32;;;;;;;;;;4602221;27;20043;-57
2022/11/29 10:28:43;;;;;;;5.68;4.20;;;;;;;;;;4602695;27;20051;-60
2022/11/29 10:30:54;;;;;;;5.73;4.50;;;;;;;;;;4601993;27;20159;-59
2022/11/29 10:33:12;;;;;;;6.00;4.30;;;;;;;;;;4602093;27;20537;-59
2022/11/29 10:35:22;;;;;;;6.03;4.15;;;;;;;;;;4602649;27;20734;-58
2022/11/29 10:37:33;;;;;;;5.45;4.32;;;;;;;;;;4602077;27;20046;-58
2022/11/29 10:39:46;;;;;;;6.00;4.30;;;;;;;;;;4601276;27;20081;-59
2022/11/29 10:41:59;;;;;;;5.15;3.80;;;;;;;;;;4600696;27;20032;-58
2022/11/29 10:44:12;;;;;;;5.03;3.95;;;;;;;;;;4602630;27;20024;-59
2022/11/29 10:46:33;;;;;;;5.63;4.18;;;;;;;;;;4602577;27;20130;-59
2022/11/29 10:48:43;;;;;;;6.03;4.25;;;;;;;;;;4600368;27;20148;-58
2022/11/29 10:50:54;;;;;;;5.47;3.95;;;;;;;;;;4602027;27;20719;-59
2022/11/29 10:53:04;;;;;;;5.80;3.78;;;;;;;;;;4601634;27;20090;-60
2022/11/29 10:55:15;;;;;;;5.07;3.70;;;;;;;;;;4609294;27;20049;-58
2022/11/29 10:57:26;;;;;;;5.25;3.85;;;;;;;;;;4607894;27;20043;-58
2022/11/29 10:59:36;;;;;;;4.38;3.70;;;;;;;;;;4610369;27;20035;-59
2022/11/29 11:01:46;;;;;;;6.13;4.05;;;;;;;;;;4606146;27;20519;-59
2022/11/29 11:03:59;;;;;;;4.53;3.50;;;;;;;;;;4606167;27;20031;-59
2022/11/29 11:06:18;;;;;;;5.15;3.95;;;;;;;;;;4598178;27;20044;-60
2022/11/29 11:08:29;;;;;;;5.85;3.95;;;;;;;;;;4603915;27;20042;-59
2022/11/29 11:10:40;;;;;;;5.00;3.88;;;;;;;;;;4608567;27;20027;-58
2022/11/29 11:13:01;;;;;;;5.22;3.90;;;;;;;;;;4606456;27;20449;-58
2022/11/29 11:15:23;;;;;;;5.50;4.03;;;;;;;;;;4602222;27;20779;-60
2022/11/29 11:17:36;;;;;;;4.70;3.65;;;;;;;;;;4603954;27;20035;-58
2022/11/29 11:19:53;;;;;;;5.22;3.97;;;;;;;;;;4603926;27;20085;-58
2022/11/29 11:22:04;;;;;;;5.25;4.00;;;;;;;;;;4603908;27;20061;-58
2022/11/29 11:24:23;;;;;;;5.65;4.00;;;;;;;;;;4610425;27;20027;-58
2022/11/29 11:26:43;;;;;;;4.85;3.60;;;;;;;;;;4604826;27;20613;-58
2022/11/29 11:28:57;;;;;;;4.80;3.67;;;;;;;;;;4602758;27;20120;-58
2022/11/29 11:31:08;;;;;;;5.03;3.45;;;;;;;;;;4605037;27;20063;-58
2022/11/29 11:33:20;;;;;;;4.82;3.30;;;;;;;;;;4610380;27;20080;-58
2022/11/29 11:35:31;;;;;;;4.65;3.40;;;;;;;;;;4605566;27;20038;-58
2022/11/29 11:37:54;;;;;;;5.32;3.25;;;;;;;;;;4609215;27;20538;-59
2022/11/29 11:40:37;;;;;;;5.82;3.42;;;;;;;;;;4606307;27;20530;-58
2022/11/29 11:42:47;;;;;;;6.05;3.50;;;;;;;;;;4572255;27;20047;-58
2022/11/29 11:44:58;;;;;;;6.07;3.40;;;;;;;;;;4605499;27;20486;-59
2022/11/29 11:47:17;;;;;;;6.13;3.65;;;;;;;;;;4606379;27;20047;-59
2022/11/29 11:49:44;;;;;;;5.85;3.25;;;;;;;;;;4610577;27;20039;-58
2022/11/29 11:51:54;;;;;;;;;;;;;;;;;;4606092;27;20031;-59
2022/11/29 11:54:12;;;;;;;6.20;3.50;;;;;;;;;;4605470;27;19912;-58
2022/11/29 11:56:23;;;;;;;6.13;3.30;;;;;;;;;;4605822;27;20258;-59
2022/11/29 11:58:36;;;;;;;7.25;3.70;;;;;;;;;;4604061;27;20456;-59
2022/11/29 12:00:53;;;;;;;5.97;3.40;;;;;;;;;;4606270;27;20558;-59
2022/11/29 12:03:04;;;;;;;6.43;3.40;;;;;;;;;;4604318;27;20912;-59
2022/11/29 12:05:18;;;;;;;5.32;3.33;;;;;;;;;;4604442;27;20717;-60
2022/11/29 12:07:34;;;;;;;5.20;3.40;;;;;;;;;;4606928;27;20034;-59
2022/11/29 12:09:50;;;;;;;6.45;3.53;;;;;;;;;;4603917;27;20043;-61
2022/11/29 12:12:03;;;;;;;5.88;3.63;;;;;;;;;;4603092;27;20063;-61
2022/11/29 12:14:19;;;;;;;6.15;3.63;;;;;;;;;;4601708;27;20108;-61
2022/11/29 12:16:31;;;;;;;5.85;3.40;;;;;;;;;;4604058;27;20923;-61
2022/11/29 12:18:47;;;;;;;5.60;3.22;;;;;;;;;;4603501;27;20060;-61
2022/11/29 12:21:04;;;;;;;6.07;3.78;;;;;;;;;;4602404;27;20070;-60
2022/11/29 12:23:29;;;;;;;4.80;3.35;;;;;;;;;;4605535;27;20669;-61
2022/11/29 12:25:43;;;;;;;6.72;3.65;;;;;;;;;;4608142;27;20140;-61
2022/11/29 12:27:53;;;;;;;6.90;3.50;;;;;;;;;;4604606;27;20086;-61
2022/11/29 12:30:13;;;;;;;6.88;3.80;;;;;;;;;;4604926;27;20084;-61
2022/11/29 12:32:29;;;;;;;7.22;3.70;;;;;;;;;;4600574;27;20035;-61
2022/11/29 12:34:42;;;;;;;6.57;3.30;;;;;;;;;;4603866;27;20085;-61
2022/11/29 12:36:53;;;;;;;6.15;3.42;;;;;;;;;;4603558;27;20073;-63
2022/11/29 12:39:18;;;;;;;5.43;3.53;;;;;;;;;;4607001;27;20039;-62
2022/11/29 12:41:29;;;;;;;6.25;3.67;;;;;;;;;;4602448;27;20118;-63
2022/11/29 12:43:52;;;;;;;5.63;3.53;;;;;;;;;;4604913;27;20046;-67
2022/11/29 12:46:10;;;;;;;5.88;3.40;;;;;;;;;;4604392;27;20060;-62
2022/11/29 12:48:31;;;;;;;5.30;3.15;;;;;;;;;;4597129;27;20052;-61
2022/11/29 12:50:51;;;;;;;5.60;3.25;;;;;;;;;;4605505;27;20597;-61
2022/11/29 12:53:10;;;;;;;6.68;3.20;;;;;;;;;;4607241;27;20721;-61
2022/11/29 12:55:23;;;;;;;6.40;3.40;;;;;;;;;;4605549;27;20651;-61
2022/11/29 12:57:36;;;;;;;5.68;3.08;;;;;;;;;;4602452;27;20035;-61
2022/11/29 13:00:02;;;;;;;6.07;3.47;;;;;;;;;;4605975;27;20088;-61
2022/11/29 13:02:32;;;;;;;5.47;3.25;;;;;;;;;;4603422;27;20043;-61
2022/11/29 13:04:45;;;;;;;5.30;3.45;;;;;;;;;;4602773;27;20038;-63
2022/11/29 13:07:01;;;;;;;5.72;3.33;;;;;;;;;;4604102;27;20757;-61
2022/11/29 13:09:14;;;;;;;4.88;2.95;;;;;;;;;;4604472;27;20222;-60
2022/11/29 13:11:29;;;;;;;5.10;3.10;;;;;;;;;;4604079;27;20035;-62
2022/11/29 13:13:41;;;;;;;5.40;3.20;;;;;;;;;;4603112;27;20043;-61
2022/11/29 13:15:56;;;;;;;5.07;3.10;;;;;;;;;;4609374;27;20034;-61
2022/11/29 13:18:16;;;;;;;5.43;2.90;;;;;;;;;;4601690;27;20126;-61
2022/11/29 13:20:45;;;;;;;6.45;3.40;;;;;;;;;;4602588;27;20035;-61
2022/11/29 13:22:58;;;;;;;5.57;2.90;;;;;;;;;;4601529;27;20045;-61
2022/11/29 13:25:15;;;;;;;5.38;3.08;;;;;;;;;;4600501;27;20035;-61
2022/11/29 13:27:31;;;;;;;5.78;2.95;;;;;;;;;;4609779;27;20043;-61
2022/11/29 13:29:42;;;;;;;6.05;2.80;;;;;;;;;;4602929;27;20076;-61
2022/11/29 13:31:52;;;;;;;6.03;2.90;;;;;;;;;;4599422;27;20123;-61
2022/11/29 13:34:15;;;;;;;5.78;2.90;;;;;;;;;;4604033;27;20031;-61
2022/11/29 13:36:46;;;;;;;5.90;2.70;;;;;;;;;;4603465;27;20035;-61
2022/11/29 13:38:56;;;;;;;4.60;2.83;;;;;;;;;;4592855;27;20601;-61